Accueil
METAR-TAF:

METAR-TAF

Aéroports :

Islamabad, Pakistan

Aéroport international Benazir Bhutto

latitude: 33-37N, longitude: 073-06E, altitude: 507 m

Observation

Le bulletin a été fait il y a 21 minutes, à 16:00 UTC
Vent 4 kt de nord-est
Température 28°C
Humidité 58%
Pression 1009 hPa
Visibilité: 4000 m
brume sèche

METAR: OPRN 261600Z 05004KT 4000 HZ NSC 28/19 Q1009.3/29.81

Heure: 21:21 (16:21 UTC)

Prévision

Le bulletin a été fait il y a 6 heures et 51 minutes, à 09:30 UTC
Prévision valable du 26 à 12 UTC au 27 à 18 UTC
Vent 10 kt de sud-est
Visibilité: 4000 m
Quelques nuages à une hauteur de 3000 ft
brume sèche
Temporairement
du 27 à 00 UTC au 27 à 04 UTC
Vent 5 kt de sud-est
Visibilité: 2000 m
Quelques nuages à une hauteur de 3000 ft
brume

TAF: OPRN 260930Z 2612/2718 13010KT 4000 HZ FEW030 TEMPO 2700/2704 13005KT 2000 BR FEW030

Observations et prévisions météorologiques de plus de 4000 aéroports (messages METAR et TAF).

Les stations disponibles sont représentées par des disques jaunes et rouges sur la carte.

Passer la souris dessus pour voir le nom de la station.

Cliquer dessus pour voir les observations et prévisions météorologiques.

Pour changer de carte: cliquez sur les boutons verts avec une croix noire pour zoomer, sur le bouton vert avec un tiret pour effectuer un zoom arrière, ou sur les flèches vertes pour les cartes adjacentes.


METAR-TAF: